Time,TemperatureF,DewpointF,PressureIn,WindDirection,WindDirectionDegrees,WindSpeedMPH,WindSpeedGustMPH,Humidity,HourlyPrecipIn,Conditions,Clouds,dailyrainin,SoftwareType,DateUTC
2013-02-04 00:02:00,38.5,30.0,30.12,NW,310,2.0,-999.0,72,-99.99,,,0.00,weatherlink.com 1.10,2013-02-04 05:02:00,
2013-02-04 00:17:00,38.2,30.0,30.12,NNW,332,1.0,-999.0,73,-99.99,,,0.00,weatherlink.com 1.10,2013-02-04 05:17:00,
2013-02-04 00:32:00,37.7,30.0,30.11,WNW,303,2.0,-999.0,74,-99.99,,,0.00,weatherlink.com 1.10,2013-02-04 05:32:00,
2013-02-04 00:47:00,37.3,30.0,30.12,NW,310,4.0,-999.0,74,-99.99,,,0.00,weatherlink.com 1.10,2013-02-04 05:47:00,
2013-02-04 01:02:00,37.1,30.0,30.11,WNW,299,1.0,-999.0,75,-99.99,,,0.00,weatherlink.com 1.10,2013-02-04 06:02:00,
2013-02-04 01:17:00,36.9,30.0,30.11,West,281,5.0,-999.0,75,-99.99,,,0.00,weatherlink.com 1.10,2013-02-04 06:17:00,
2013-02-04 01:32:00,36.6,30.0,30.11,NW,310,1.0,-999.0,76,-99.99,,,0.00,weatherlink.com 1.10,2013-02-04 06:32:00,
2013-02-04 01:47:00,36.0,29.0,30.10,North,351,2.0,-999.0,76,-99.99,,,0.00,weatherlink.com 1.10,2013-02-04 06:47:00,
2013-02-04 02:02:00,35.7,29.0,30.11,NNW,340,1.0,-999.0,76,-99.99,,,0.00,weatherlink.com 1.10,2013-02-04 07:02:00,
2013-02-04 02:17:00,35.2,29.0,30.11,WNW,303,0.0,-999.0,77,-99.99,,,0.00,weatherlink.com 1.10,2013-02-04 07:17:00,
2013-02-04 02:32:00,34.7,29.0,30.11,NW,307,0.0,-999.0,78,-99.99,,,0.00,weatherlink.com 1.10,2013-02-04 07:32:00,
2013-02-04 02:47:00,34.1,29.0,30.09,NW,307,0.0,-999.0,80,-99.99,,,0.00,weatherlink.com 1.10,2013-02-04 07:47:00,
2013-02-04 03:02:00,33.5,28.0,30.10,NW,307,0.0,-999.0,81,-99.99,,,0.00,weatherlink.com 1.10,2013-02-04 08:02:00,
2013-02-04 03:17:00,33.0,28.0,30.10,NW,307,0.0,-999.0,82,-99.99,,,0.00,weatherlink.com 1.10,2013-02-04 08:17:00,
2013-02-04 03:32:00,32.6,28.0,30.10,NW,306,4.0,-999.0,83,-99.99,,,0.00,weatherlink.com 1.10,2013-02-04 08:32:00,
2013-02-04 03:47:00,32.1,28.0,30.10,NW,306,0.0,-999.0,84,-99.99,,,0.00,weatherlink.com 1.10,2013-02-04 08:47:00,
2013-02-04 04:02:00,31.9,28.0,30.09,NW,306,0.0,-999.0,84,-99.99,,,0.00,weatherlink.com 1.10,2013-02-04 09:02:00,
2013-02-04 04:17:00,31.5,28.0,30.09,NW,306,0.0,-999.0,85,-99.99,,,0.00,weatherlink.com 1.10,2013-02-04 09:17:00,
2013-02-04 04:32:00,31.0,27.0,30.09,NW,306,0.0,-999.0,85,-99.99,,,0.00,weatherlink.com 1.10,2013-02-04 09:32:00,
2013-02-04 04:47:00,30.6,27.0,30.08,NW,306,0.0,-999.0,86,-99.99,,,0.00,weatherlink.com 1.10,2013-02-04 09:47:00,
2013-02-04 05:02:00,30.1,27.0,30.09,NW,306,0.0,-999.0,87,-99.99,,,0.00,weatherlink.com 1.10,2013-02-04 10:02:00,
2013-02-04 05:17:00,29.8,26.0,30.09,NW,306,0.0,-999.0,87,-99.99,,,0.00,weatherlink.com 1.10,2013-02-04 10:17:00,
2013-02-04 05:33:00,29.7,27.0,30.10,NW,306,0.0,-999.0,88,-99.99,,,0.00,weatherlink.com 1.10,2013-02-04 10:33:00,
2013-02-04 05:48:00,29.8,27.0,30.11,NW,306,0.0,-999.0,88,-99.99,,,0.00,weatherlink.com 1.10,2013-02-04 10:48:00,
2013-02-04 06:03:00,30.1,27.0,30.11,NW,306,2.0,-999.0,88,-99.99,,,0.00,weatherlink.com 1.10,2013-02-04 11:03:00,
2013-02-04 06:18:00,30.4,27.0,30.10,NW,306,0.0,-999.0,88,-99.99,,,0.00,weatherlink.com 1.10,2013-02-04 11:18:00,
2013-02-04 06:33:00,30.5,27.0,30.10,NW,306,1.0,-999.0,88,-99.99,,,0.00,weatherlink.com 1.10,2013-02-04 11:33:00,
2013-02-04 06:48:00,30.7,28.0,30.10,NW,306,0.0,-999.0,88,-99.99,,,0.00,weatherlink.com 1.10,2013-02-04 11:48:00,
2013-02-04 07:03:00,30.9,28.0,30.12,NW,306,0.0,-999.0,88,-99.99,,,0.00,weatherlink.com 1.10,2013-02-04 12:03:00,
2013-02-04 07:18:00,31.2,28.0,30.11,NW,306,0.0,-999.0,88,-99.99,,,0.00,weatherlink.com 1.10,2013-02-04 12:18:00,
2013-02-04 07:33:00,31.5,28.0,30.12,NW,315,5.0,-999.0,87,-99.99,,,0.00,weatherlink.com 1.10,2013-02-04 12:33:00,
2013-02-04 07:48:00,31.8,28.0,30.12,NNW,345,5.0,-999.0,86,-99.99,,,0.00,weatherlink.com 1.10,2013-02-04 12:48:00,
2013-02-04 08:03:00,32.0,28.0,30.14,West,274,1.0,-999.0,86,-99.99,,,0.00,weatherlink.com 1.10,2013-02-04 13:03:00,
2013-02-04 08:18:00,32.4,28.0,30.13,North,359,0.0,-999.0,85,-99.99,,,0.00,weatherlink.com 1.10,2013-02-04 13:18:00,
2013-02-04 08:33:00,32.8,29.0,30.15,North,359,0.0,-999.0,85,-99.99,,,0.00,weatherlink.com 1.10,2013-02-04 13:33:00,
2013-02-04 08:48:00,33.2,29.0,30.13,NNE,31,0.0,-999.0,83,-99.99,,,0.00,weatherlink.com 1.10,2013-02-04 13:48:00,
2013-02-04 09:03:00,33.6,29.0,30.14,NNE,24,1.0,-999.0,83,-99.99,,,0.00,weatherlink.com 1.10,2013-02-04 14:03:00,
2013-02-04 09:18:00,34.1,30.0,30.15,NNE,20,0.0,-999.0,83,-99.99,,,0.00,weatherlink.com 1.10,2013-02-04 14:18:00,
2013-02-04 09:33:00,34.6,30.0,30.15,NNE,20,2.0,-999.0,82,-99.99,,,0.00,weatherlink.com 1.10,2013-02-04 14:33:00,
2013-02-04 09:48:00,35.3,30.0,30.15,NNE,22,0.0,-999.0,80,-99.99,,,0.00,weatherlink.com 1.10,2013-02-04 14:48:00,
2013-02-04 10:03:00,36.1,30.0,30.15,NW,314,4.0,-999.0,79,-99.99,,,0.00,weatherlink.com 1.10,2013-02-04 15:03:00,
2013-02-04 10:18:00,37.1,31.0,30.14,North,8,2.0,-999.0,78,-99.99,,,0.00,weatherlink.com 1.10,2013-02-04 15:18:00,
2013-02-04 10:33:00,38.1,31.0,30.14,North,351,0.0,-999.0,76,-99.99,,,0.00,weatherlink.com 1.10,2013-02-04 15:33:00,
2013-02-04 10:48:00,38.8,31.0,30.14,North,351,0.0,-999.0,73,-99.99,,,0.00,weatherlink.com 1.10,2013-02-04 15:48:00,
2013-02-04 11:03:00,40.0,31.0,30.13,North,351,2.0,-999.0,70,-99.99,,,0.00,weatherlink.com 1.10,2013-02-04 16:03:00,
2013-02-04 11:18:00,40.7,30.0,30.13,North,351,0.0,-999.0,66,-99.99,,,0.00,weatherlink.com 1.10,2013-02-04 16:18:00,
2013-02-04 11:33:00,41.7,31.0,30.14,North,351,0.0,-999.0,65,-99.99,,,0.00,weatherlink.com 1.10,2013-02-04 16:33:00,
2013-02-04 11:48:00,42.6,31.0,30.15,South,189,3.0,-999.0,64,-99.99,,,0.00,weatherlink.com 1.10,2013-02-04 16:48:00,
2013-02-04 12:03:00,43.2,30.0,30.15,West,262,2.0,-999.0,61,-99.99,,,0.00,weatherlink.com 1.10,2013-02-04 17:03:00,
2013-02-04 12:18:00,43.6,31.0,30.13,WSW,257,0.0,-999.0,62,-99.99,,,0.00,weatherlink.com 1.10,2013-02-04 17:18:00,
2013-02-04 12:33:00,44.5,31.0,30.12,WSW,257,0.0,-999.0,60,-99.99,,,0.00,weatherlink.com 1.10,2013-02-04 17:33:00,
2013-02-04 12:48:00,45.5,31.0,30.11,WSW,257,2.0,-999.0,57,-99.99,,,0.00,weatherlink.com 1.10,2013-02-04 17:48:00,
2013-02-04 13:03:00,46.1,31.0,30.11,South,191,3.0,-999.0,56,-99.99,,,0.00,weatherlink.com 1.10,2013-02-04 18:03:00,
2013-02-04 13:18:00,46.3,31.0,30.10,SSE,156,1.0,-999.0,56,-99.99,,,0.00,weatherlink.com 1.10,2013-02-04 18:18:00,
2013-02-04 13:48:00,47.0,31.0,30.09,SE,141,1.0,-999.0,54,-99.99,,,0.00,weatherlink.com 1.10,2013-02-04 18:48:00,
2013-02-04 14:03:00,47.4,30.0,30.09,WSW,246,3.0,-999.0,52,-99.99,,,0.00,weatherlink.com 1.10,2013-02-04 19:03:00,
2013-02-04 14:18:00,47.7,30.0,30.07,SE,135,3.0,-999.0,50,-99.99,,,0.00,weatherlink.com 1.10,2013-02-04 19:18:00,
2013-02-04 14:34:00,48.2,31.0,30.08,SSW,206,1.0,-999.0,52,-99.99,,,0.00,weatherlink.com 1.10,2013-02-04 19:34:00,
2013-02-04 14:49:00,48.7,30.0,30.07,SSE,166,0.0,-999.0,49,-99.99,,,0.00,weatherlink.com 1.10,2013-02-04 19:49:00,
2013-02-04 15:04:00,49.1,30.0,30.07,SSE,161,1.0,-999.0,48,-99.99,,,0.00,weatherlink.com 1.10,2013-02-04 20:04:00,
2013-02-04 15:19:00,49.1,30.0,30.06,SSE,161,0.0,-999.0,48,-99.99,,,0.00,weatherlink.com 1.10,2013-02-04 20:19:00,
2013-02-04 15:34:00,49.2,31.0,30.05,SE,146,0.0,-999.0,49,-99.99,,,0.00,weatherlink.com 1.10,2013-02-04 20:34:00,
2013-02-04 15:49:00,49.2,30.0,30.06,SE,146,2.0,-999.0,48,-99.99,,,0.00,weatherlink.com 1.10,2013-02-04 20:49:00,
2013-02-04 16:04:00,49.4,31.0,30.05,SE,146,1.0,-999.0,49,-99.99,,,0.00,weatherlink.com 1.10,2013-02-04 21:04:00,
2013-02-04 16:19:00,49.4,31.0,30.05,SE,146,0.0,-999.0,49,-99.99,,,0.00,weatherlink.com 1.10,2013-02-04 21:19:00,
2013-02-04 16:34:00,49.2,31.0,30.05,SE,146,1.0,-999.0,50,-99.99,,,0.00,weatherlink.com 1.10,2013-02-04 21:34:00,
2013-02-04 16:49:00,49.2,32.0,30.04,SE,146,0.0,-999.0,51,-99.99,,,0.00,weatherlink.com 1.10,2013-02-04 21:49:00,
2013-02-04 17:04:00,49.2,32.0,30.04,ENE,69,0.0,-999.0,51,-99.99,,,0.00,weatherlink.com 1.10,2013-02-04 22:04:00,
2013-02-04 17:19:00,49.3,32.0,30.05,ENE,69,0.0,-999.0,51,-99.99,,,0.00,weatherlink.com 1.10,2013-02-04 22:19:00,
2013-02-04 17:34:00,49.1,31.0,30.05,ENE,69,0.0,-999.0,50,-99.99,,,0.00,weatherlink.com 1.10,2013-02-04 22:34:00,
2013-02-04 17:49:00,48.7,33.0,30.05,ENE,69,0.0,-999.0,54,-99.99,,,0.00,weatherlink.com 1.10,2013-02-04 22:49:00,
2013-02-04 18:04:00,48.0,32.0,30.05,ENE,69,0.0,-999.0,55,-99.99,,,0.00,weatherlink.com 1.10,2013-02-04 23:04:00,
2013-02-04 18:19:00,47.3,32.0,30.05,ENE,69,0.0,-999.0,56,-99.99,,,0.00,weatherlink.com 1.10,2013-02-04 23:19:00,
2013-02-04 18:34:00,46.7,34.0,30.05,ENE,69,0.0,-999.0,61,-99.99,,,0.00,weatherlink.com 1.10,2013-02-04 23:34:00,
2013-02-04 18:49:00,46.1,33.0,30.05,ENE,69,0.0,-999.0,61,-99.99,,,0.00,weatherlink.com 1.10,2013-02-04 23:49:00,
2013-02-04 19:04:00,45.3,33.0,30.06,ENE,69,0.0,-999.0,63,-99.99,,,0.00,weatherlink.com 1.10,2013-02-05 00:04:00,
2013-02-04 19:19:00,44.6,33.0,30.06,ENE,69,0.0,-999.0,65,-99.99,,,0.00,weatherlink.com 1.10,2013-02-05 00:19:00,
2013-02-04 19:34:00,43.9,33.0,30.06,ENE,69,0.0,-999.0,66,-99.99,,,0.00,weatherlink.com 1.10,2013-02-05 00:34:00,
2013-02-04 19:49:00,43.4,34.0,30.06,ENE,69,0.0,-999.0,69,-99.99,,,0.00,weatherlink.com 1.10,2013-02-05 00:49:00,
2013-02-04 20:04:00,42.9,34.0,30.06,ENE,69,0.0,-999.0,71,-99.99,,,0.00,weatherlink.com 1.10,2013-02-05 01:04:00,
2013-02-04 20:19:00,42.7,35.0,30.06,ENE,69,0.0,-999.0,73,-99.99,,,0.00,weatherlink.com 1.10,2013-02-05 01:19:00,
2013-02-04 20:34:00,42.5,34.0,30.06,ENE,69,0.0,-999.0,73,-99.99,,,0.00,weatherlink.com 1.10,2013-02-05 01:34:00,
2013-02-04 20:49:00,42.4,34.0,30.06,ENE,69,0.0,-999.0,73,-99.99,,,0.00,weatherlink.com 1.10,2013-02-05 01:49:00,
2013-02-04 21:04:00,42.2,34.0,30.06,ENE,69,0.0,-999.0,74,-99.99,,,0.00,weatherlink.com 1.10,2013-02-05 02:04:00,
2013-02-04 21:19:00,42.0,35.0,30.07,ENE,69,0.0,-999.0,75,-99.99,,,0.00,weatherlink.com 1.10,2013-02-05 02:19:00,
2013-02-04 21:34:00,41.8,34.0,30.07,ENE,69,0.0,-999.0,75,-99.99,,,0.00,weatherlink.com 1.10,2013-02-05 02:34:00,
2013-02-04 21:49:00,41.4,34.0,30.07,ENE,69,0.0,-999.0,76,-99.99,,,0.00,weatherlink.com 1.10,2013-02-05 02:49:00,
2013-02-04 22:04:00,40.8,34.0,30.06,ENE,69,0.0,-999.0,76,-99.99,,,0.00,weatherlink.com 1.10,2013-02-05 03:04:00,
2013-02-04 22:19:00,40.3,34.0,30.06,ENE,69,0.0,-999.0,77,-99.99,,,0.00,weatherlink.com 1.10,2013-02-05 03:19:00,
2013-02-04 22:34:00,39.8,33.0,30.06,ENE,69,0.0,-999.0,78,-99.99,,,0.00,weatherlink.com 1.10,2013-02-05 03:34:00,
2013-02-04 22:49:00,39.4,34.0,30.05,ENE,69,0.0,-999.0,80,-99.99,,,0.00,weatherlink.com 1.10,2013-02-05 03:49:00,
2013-02-04 23:04:00,39.1,34.0,30.05,ENE,69,0.0,-999.0,81,-99.99,,,0.00,weatherlink.com 1.10,2013-02-05 04:04:00,
2013-02-04 23:19:00,38.6,33.0,30.04,ENE,69,0.0,-999.0,81,-99.99,,,0.00,weatherlink.com 1.10,2013-02-05 04:19:00,
2013-02-04 23:34:00,38.0,33.0,30.04,ENE,69,0.0,-999.0,82,-99.99,,,0.00,weatherlink.com 1.10,2013-02-05 04:34:00,
2013-02-04 23:49:00,37.5,33.0,30.03,ENE,69,0.0,-999.0,83,-99.99,,,0.00,weatherlink.com 1.10,2013-02-05 04:49:00,